createdAt,value
2023-03-21T11:36:08.543Z,8.63
2023-03-21T11:38:39.855Z,4.93
2023-03-21T11:41:08.092Z,5.40
2023-03-21T11:43:37.891Z,4.60
2023-03-21T11:46:05.762Z,3.97
2023-03-21T11:48:39.410Z,3.90
2023-03-21T11:51:35.676Z,9.52
2023-03-21T11:54:25.378Z,6.05
2023-03-21T11:56:56.949Z,10.30
2023-03-21T11:59:27.050Z,6.82
2023-03-21T12:02:18.470Z,4.63
2023-03-21T12:05:21.045Z,4.35
2023-03-21T12:07:50.623Z,4.47
2023-03-21T12:10:33.427Z,3.67
2023-03-21T12:13:00.345Z,4.20
2023-03-21T12:15:43.194Z,4.22
2023-03-21T12:18:37.171Z,3.10
2023-03-21T12:21:14.477Z,4.82
2023-03-21T12:24:10.154Z,3.30
2023-03-21T12:26:53.044Z,4.10
2023-03-21T12:29:36.738Z,3.78
2023-03-21T12:32:46.755Z,10.55
2023-03-21T12:35:24.025Z,4.63
2023-03-21T12:38:14.183Z,6.60
2023-03-21T12:40:53.683Z,6.47
2023-03-21T12:43:46.558Z,4.80
2023-03-21T12:46:21.848Z,3.80
2023-03-21T12:48:58.551Z,8.57
2023-03-21T12:51:44.152Z,3.75
2023-03-21T12:54:27.000Z,4.60
2023-03-21T12:57:13.342Z,4.78
2023-03-21T12:59:50.518Z,4.90
2023-03-21T13:02:45.966Z,4.82
2023-03-21T13:05:31.982Z,4.63
2023-03-21T13:08:09.944Z,5.53
2023-03-21T13:10:37.514Z,15.13
2023-03-21T13:13:39.613Z,14.48
2023-03-21T13:16:27.500Z,31.23
2023-03-21T13:19:00.494Z,6.63
2023-03-21T13:21:55.449Z,5.63
2023-03-21T13:24:22.289Z,6.20
2023-03-21T13:26:51.555Z,4.30
2023-03-21T13:29:32.766Z,4.88
2023-03-21T13:32:09.719Z,4.68
2023-03-21T13:34:40.594Z,3.42
2023-03-21T13:37:15.741Z,4.32
2023-03-21T13:39:46.672Z,3.78
2023-03-21T13:42:34.048Z,3.80
2023-03-21T13:45:02.697Z,4.50
2023-03-21T13:47:52.458Z,6.57
2023-03-21T13:50:28.969Z,3.38
2023-03-21T13:53:02.262Z,3.85
2023-03-21T13:55:36.697Z,3.72
2023-03-21T13:58:31.817Z,3.80
2023-03-21T14:01:17.795Z,4.70
2023-03-21T14:03:50.023Z,4.20
2023-03-21T14:06:18.784Z,2.90
2023-03-21T14:08:49.091Z,4.50
2023-03-21T14:11:21.131Z,7.60
2023-03-21T14:13:51.710Z,4.88
2023-03-21T14:16:20.782Z,3.70
2023-03-21T14:18:56.242Z,3.08
2023-03-21T14:21:26.894Z,3.65
2023-03-21T14:24:03.451Z,3.83
2023-03-21T14:26:44.446Z,5.13
2023-03-21T14:29:26.241Z,3.92
2023-03-21T14:31:56.395Z,3.60
2023-03-21T14:34:26.257Z,3.42
2023-03-21T14:36:58.159Z,3.65
2023-03-21T14:39:31.527Z,4.30
2023-03-21T14:42:11.925Z,3.15
2023-03-21T14:44:53.809Z,3.30
2023-03-21T14:47:23.902Z,3.83
2023-03-21T14:49:51.895Z,5.25
2023-03-21T14:52:35.005Z,4.35
2023-03-21T14:55:06.279Z,3.88
2023-03-21T14:57:33.947Z,3.28
2023-03-21T15:00:12.824Z,4.05
2023-03-21T15:02:41.999Z,3.88
2023-03-21T15:05:11.008Z,7.00
2023-03-21T15:07:38.280Z,7.55
2023-03-21T15:10:25.424Z,3.40
2023-03-21T15:12:58.721Z,3.72
2023-03-21T15:15:28.337Z,4.28
2023-03-21T15:18:00.517Z,3.58
2023-03-21T15:20:34.184Z,3.72
2023-03-21T15:23:05.372Z,3.33
2023-03-21T15:25:36.415Z,4.45
2023-03-21T15:28:08.262Z,3.55
2023-03-21T15:30:36.434Z,3.33
2023-03-21T15:33:09.946Z,6.45
2023-03-21T15:35:43.259Z,4.28
2023-03-21T15:38:21.789Z,4.43
2023-03-21T15:40:49.000Z,3.85
2023-03-21T15:43:21.840Z,4.00
2023-03-21T15:45:55.457Z,5.15
2023-03-21T15:48:28.614Z,4.43
2023-03-21T15:50:56.762Z,6.07
2023-03-21T15:53:25.564Z,4.97
2023-03-21T15:56:03.337Z,4.68
2023-03-21T15:58:37.068Z,4.72
2023-03-21T16:01:07.185Z,5.57
2023-03-21T16:03:42.190Z,5.90
2023-03-21T16:06:15.050Z,5.53
2023-03-21T16:08:46.486Z,4.55
2023-03-21T16:11:23.201Z,6.20
2023-03-21T16:13:51.738Z,10.75
2023-03-21T16:16:27.413Z,5.57
2023-03-21T16:18:56.339Z,5.95
2023-03-21T16:21:28.706Z,5.15
2023-03-21T16:23:58.354Z,5.38
2023-03-21T16:26:30.803Z,6.90
2023-03-21T16:31:31.048Z,5.90
2023-03-21T16:33:58.269Z,5.28
2023-03-21T16:36:32.003Z,5.53
2023-03-21T16:39:00.450Z,6.85
2023-03-21T16:41:29.772Z,5.32
2023-03-21T16:44:00.132Z,4.88
2023-03-21T16:46:28.402Z,7.15
2023-03-21T16:48:58.223Z,6.03
2023-03-21T16:51:31.588Z,10.52
2023-03-21T16:53:59.293Z,6.78
2023-03-21T16:56:51.696Z,7.55
2023-03-21T16:59:19.440Z,6.13
2023-03-21T17:01:48.445Z,6.78
2023-03-21T17:04:17.279Z,5.95
2023-03-21T17:06:53.947Z,6.40
2023-03-21T17:09:23.801Z,8.55
2023-03-21T17:11:51.599Z,5.60
2023-03-21T17:14:18.872Z,5.53
2023-03-21T17:16:46.381Z,4.43
2023-03-21T17:19:18.152Z,6.10
2023-03-21T17:21:45.999Z,5.28
2023-03-21T17:24:13.860Z,7.95
2023-03-21T17:26:42.990Z,5.70
2023-03-21T17:29:14.370Z,5.40
2023-03-21T17:31:42.618Z,4.95
2023-03-21T17:34:11.125Z,5.82
2023-03-21T17:36:40.577Z,4.75
2023-03-21T17:39:14.407Z,6.25
2023-03-21T17:42:18.326Z,9.52
2023-03-21T17:44:46.630Z,7.78
2023-03-21T17:47:13.580Z,8.00
2023-03-21T17:49:41.281Z,8.05
2023-03-21T17:52:08.828Z,6.22
2023-03-21T17:54:42.408Z,9.05
2023-03-21T17:57:12.476Z,9.43
2023-03-21T17:59:39.285Z,8.60
2023-03-21T18:02:08.116Z,6.57
2023-03-21T18:04:37.590Z,6.45
2023-03-21T18:07:06.908Z,6.05
2023-03-21T18:09:35.639Z,7.50
2023-03-21T18:12:02.611Z,6.35
2023-03-21T18:14:30.674Z,7.28
2023-03-21T18:16:59.752Z,7.55
2023-03-21T18:19:27.676Z,10.27
2023-03-21T18:21:55.114Z,7.45
2023-03-21T18:24:21.978Z,9.65
2023-03-21T18:26:48.917Z,9.00
2023-03-21T18:30:15.777Z,8.80
2023-03-21T18:32:08.033Z,10.93
2023-03-21T18:34:38.929Z,12.00
2023-03-21T18:37:08.175Z,13.50
2023-03-21T18:39:36.540Z,11.25
2023-03-21T18:42:05.632Z,16.23
2023-03-21T18:44:38.875Z,12.60
2023-03-21T18:47:07.366Z,12.60
2023-03-21T18:52:23.123Z,12.07
2023-03-21T18:54:50.383Z,11.25
2023-03-21T18:57:35.809Z,11.70
2023-03-21T19:00:16.987Z,11.80
2023-03-21T19:02:50.781Z,9.73
2023-03-21T19:05:20.422Z,11.57
2023-03-21T19:07:48.631Z,9.48
2023-03-21T19:10:20.214Z,10.30
2023-03-21T19:12:52.634Z,10.93
2023-03-21T19:15:21.947Z,10.05
2023-03-21T19:20:36.822Z,11.45
2023-03-21T19:23:03.885Z,11.23
2023-03-21T19:25:31.211Z,10.88
2023-03-21T19:27:58.141Z,12.60
2023-03-21T19:30:25.188Z,11.15
2023-03-21T19:32:52.034Z,13.15
2023-03-21T19:35:19.018Z,15.38
2023-03-21T19:37:46.839Z,12.45
2023-03-21T19:40:14.801Z,15.25
2023-03-21T19:42:43.138Z,17.63
2023-03-21T19:45:10.854Z,18.10
2023-03-21T19:47:37.703Z,20.17
2023-03-21T19:53:01.413Z,13.48
2023-03-21T19:55:28.497Z,13.90
2023-03-21T19:57:57.155Z,12.85
2023-03-21T20:00:24.714Z,15.95
2023-03-21T20:02:51.814Z,13.35
2023-03-21T20:05:25.638Z,13.07
2023-03-21T20:07:58.428Z,13.07
2023-03-21T20:10:28.282Z,12.00
2023-03-21T20:12:58.037Z,13.45
2023-03-21T20:15:26.909Z,10.27
2023-03-21T20:17:56.173Z,14.25
2023-03-21T20:20:24.103Z,14.32
2023-03-21T20:23:06.358Z,13.80
2023-03-21T20:25:34.878Z,11.15
2023-03-21T20:28:15.115Z,12.85
2023-03-21T20:30:53.244Z,11.25
2023-03-21T20:33:21.261Z,13.07
2023-03-21T20:38:37.439Z,11.98
2023-03-21T20:41:06.494Z,13.57
2023-03-21T20:44:28.172Z,11.80
2023-03-21T20:46:22.046Z,11.57
2023-03-21T20:48:49.756Z,10.52
2023-03-21T20:52:32.650Z,10.65
2023-03-21T20:54:11.698Z,12.88
2023-03-21T20:56:39.418Z,14.57
2023-03-21T20:59:17.659Z,12.60
2023-03-21T21:01:48.294Z,14.50
2023-03-21T21:04:20.234Z,12.20
2023-03-21T21:06:48.667Z,11.20
2023-03-21T21:09:17.369Z,13.50
2023-03-21T21:14:32.402Z,12.85
2023-03-21T21:17:22.506Z,11.70
2023-03-21T21:19:50.720Z,11.82
2023-03-21T21:22:17.872Z,11.07
2023-03-21T21:24:45.665Z,16.15
2023-03-21T21:27:12.822Z,13.95
2023-03-21T21:29:39.648Z,12.85
2023-03-21T21:32:06.463Z,11.73
2023-03-21T21:34:33.520Z,16.10
2023-03-21T21:37:00.657Z,18.17
2023-03-21T21:39:27.749Z,18.40
2023-03-21T21:41:54.974Z,17.63
2023-03-21T21:44:22.315Z,18.13
2023-03-21T21:46:49.234Z,20.85
2023-03-21T21:49:16.545Z,17.13
2023-03-21T21:51:44.230Z,12.98
2023-03-21T21:54:18.567Z,15.20
2023-03-21T21:56:49.168Z,15.57
2023-03-21T21:59:16.257Z,13.38
2023-03-21T22:01:43.160Z,14.25
2023-03-21T22:04:11.405Z,13.63
2023-03-21T22:06:38.278Z,14.93
2023-03-21T22:09:05.594Z,13.10
2023-03-21T22:11:32.961Z,12.52
2023-03-21T22:13:59.864Z,11.95
2023-03-21T22:16:26.773Z,13.90
2023-03-21T22:18:53.830Z,12.73
2023-03-21T22:21:20.704Z,15.13
2023-03-21T22:23:47.858Z,13.35
2023-03-21T22:26:15.026Z,10.48
2023-03-21T22:28:43.323Z,14.45
2023-03-21T22:31:16.256Z,14.57
2023-03-21T22:33:44.650Z,13.55
2023-03-21T22:36:12.160Z,12.05
2023-03-21T22:38:42.028Z,11.82
2023-03-21T22:41:09.577Z,12.85
2023-03-21T22:43:36.581Z,14.25
2023-03-21T22:46:04.495Z,13.55
2023-03-21T22:48:32.045Z,16.35
2023-03-21T22:51:02.121Z,13.63
2023-03-21T22:53:29.809Z,16.05
2023-03-21T22:55:57.986Z,15.18
2023-03-21T22:58:24.952Z,14.48
2023-03-21T23:00:51.986Z,15.20
2023-03-21T23:03:19.097Z,13.35
2023-03-21T23:05:46.009Z,12.15
2023-03-21T23:08:13.282Z,14.93
2023-03-21T23:10:43.879Z,12.85
2023-03-21T23:13:11.119Z,13.00
2023-03-21T23:15:38.780Z,12.77
2023-03-21T23:18:05.943Z,12.98
2023-03-21T23:20:32.866Z,12.05
2023-03-21T23:22:59.878Z,11.95
2023-03-21T23:25:29.048Z,13.38
2023-03-21T23:27:56.258Z,11.15
2023-03-21T23:30:23.438Z,11.95
2023-03-21T23:32:50.373Z,11.30
2023-03-21T23:35:17.342Z,13.18
2023-03-21T23:37:50.162Z,13.30
2023-03-21T23:40:17.170Z,13.38
2023-03-21T23:42:44.166Z,11.93
2023-03-21T23:45:11.849Z,14.02
2023-03-21T23:47:38.772Z,14.35
2023-03-21T23:50:07.883Z,14.55
2023-03-21T23:52:37.044Z,10.50
2023-03-21T23:55:05.570Z,12.50
2023-03-21T23:57:32.467Z,12.93
2023-03-21T23:59:59.677Z,11.43
